createdAt,value
2022-09-11T00:00:09.274Z,97714.25
2022-09-11T00:02:36.108Z,97721.31
2022-09-11T00:05:03.098Z,97715.09
2022-09-11T00:07:31.068Z,97722.94
2022-09-11T00:09:57.865Z,97719.09
2022-09-11T00:12:24.832Z,97717.16
2022-09-11T00:14:52.995Z,97725.66
2022-09-11T00:17:19.801Z,97725.50
2022-09-11T00:19:46.637Z,97730.66
2022-09-11T00:22:13.489Z,97728.72
2022-09-11T00:24:41.348Z,97724.41
2022-09-11T00:27:08.100Z,97731.31
2022-09-11T00:32:03.140Z,97734.16
2022-09-11T00:34:29.995Z,97734.91
2022-09-11T00:36:58.161Z,97738.00
2022-09-11T00:39:24.999Z,97741.47
2022-09-11T00:41:51.860Z,97742.69
2022-09-11T00:44:55.800Z,97741.72
2022-09-11T00:47:24.370Z,97752.09
2022-09-11T00:49:54.353Z,97759.25
2022-09-11T00:52:25.320Z,97766.41
2022-09-11T00:54:56.797Z,97762.47
2022-09-11T00:57:27.895Z,97763.09
2022-09-11T00:59:58.739Z,97767.53
2022-09-11T01:02:30.145Z,97776.19
2022-09-11T01:04:57.932Z,97777.47
2022-09-11T01:07:26.815Z,97772.34
2022-09-11T01:09:55.133Z,97774.75
2022-09-11T01:12:27.531Z,97785.31
2022-09-11T01:15:01.510Z,97786.63
2022-09-11T01:17:36.062Z,97776.56
2022-09-11T01:20:26.585Z,97783.91
2022-09-11T01:23:14.000Z,97783.09
2022-09-11T01:26:01.624Z,97780.38
2022-09-11T01:28:35.411Z,97770.13
2022-09-11T01:31:06.343Z,97773.16
2022-09-11T01:33:43.104Z,97770.94
2022-09-11T01:36:14.097Z,97777.47
2022-09-11T01:38:47.083Z,97768.03
2022-09-11T01:41:18.454Z,97779.03
2022-09-11T01:43:53.190Z,97774.78
2022-09-11T01:46:23.420Z,97772.38
2022-09-11T01:48:55.450Z,97778.13
2022-09-11T01:51:28.334Z,97788.50
2022-09-11T01:53:59.337Z,97787.53
2022-09-11T01:56:32.555Z,97788.00
2022-09-11T01:59:06.690Z,97793.25
2022-09-11T02:01:37.079Z,97788.53
2022-09-11T02:04:10.685Z,97794.19
2022-09-11T02:06:42.585Z,97795.06
2022-09-11T02:09:14.723Z,97800.78
2022-09-11T02:11:45.799Z,97800.78
2022-09-11T02:14:21.327Z,97802.69
2022-09-11T02:16:51.195Z,97810.34
2022-09-11T02:19:19.886Z,97806.22
2022-09-11T02:21:48.002Z,97813.06
2022-09-11T02:24:15.869Z,97810.16
2022-09-11T02:26:46.709Z,97809.25
2022-09-11T02:29:15.616Z,97815.59
2022-09-11T02:31:43.819Z,97817.50
2022-09-11T02:34:13.148Z,97821.44
2022-09-11T02:37:03.300Z,97814.41
2022-09-11T02:40:04.889Z,97813.09
2022-09-11T02:42:48.131Z,97815.28
2022-09-11T02:45:31.646Z,97818.84
2022-09-11T02:48:15.127Z,97826.56
2022-09-11T02:50:50.612Z,97837.53
2022-09-11T02:53:25.474Z,97838.53
2022-09-11T02:56:01.561Z,97844.28
2022-09-11T02:58:34.568Z,97848.81
2022-09-11T03:01:03.731Z,97848.91
2022-09-11T03:03:38.657Z,97849.50
2022-09-11T03:06:06.459Z,97856.34
2022-09-11T03:08:33.221Z,97855.53
2022-09-11T03:11:00.349Z,97859.47
2022-09-11T03:13:27.165Z,97866.50
2022-09-11T03:15:54.482Z,97858.97
2022-09-11T03:18:23.288Z,97864.69
2022-09-11T03:20:51.938Z,97858.03
2022-09-11T03:23:18.756Z,97866.59
2022-09-11T03:25:45.607Z,97872.84
2022-09-11T03:28:12.416Z,97881.28
2022-09-11T03:30:41.497Z,97875.34
2022-09-11T03:33:08.633Z,97877.56
2022-09-11T03:35:36.979Z,97879.47
2022-09-11T03:38:03.813Z,97878.16
2022-09-11T03:40:30.655Z,97883.06
2022-09-11T03:42:57.495Z,97883.91
2022-09-11T03:45:24.457Z,97887.72
2022-09-11T03:47:51.434Z,97885.78
2022-09-11T03:50:18.351Z,97882.50
2022-09-11T03:52:46.744Z,97884.31
2022-09-11T03:55:13.548Z,97877.78
2022-09-11T03:57:40.615Z,97884.00
2022-09-11T04:00:09.101Z,97884.31
2022-09-11T04:02:36.137Z,97889.44
2022-09-11T04:05:04.586Z,97891.34
2022-09-11T04:07:31.724Z,97881.88
2022-09-11T04:09:59.963Z,97889.53
2022-09-11T04:12:27.068Z,97887.09
2022-09-11T04:14:53.954Z,97883.69
2022-09-11T04:17:20.785Z,97878.84
2022-09-11T04:19:48.253Z,97879.25
2022-09-11T04:22:15.248Z,97884.47
2022-09-11T04:24:42.172Z,97889.50
2022-09-11T04:27:12.930Z,97876.88
2022-09-11T04:29:39.800Z,97876.19
2022-09-11T04:32:06.682Z,97885.00
2022-09-11T04:34:33.529Z,97886.09
2022-09-11T04:37:00.321Z,97880.97
2022-09-11T04:39:27.221Z,97890.00
2022-09-11T04:41:55.411Z,97884.25
2022-09-11T04:44:26.324Z,97890.94
2022-09-11T04:46:53.159Z,97897.06
2022-09-11T04:49:19.954Z,97894.28
2022-09-11T04:51:46.826Z,97888.56
2022-09-11T04:54:15.865Z,97898.53
2022-09-11T04:56:42.832Z,97893.31
2022-09-11T04:59:13.670Z,97898.44
2022-09-11T05:01:43.900Z,97905.16
2022-09-11T05:04:11.949Z,97904.78
2022-09-11T05:06:39.013Z,97905.00
2022-09-11T05:09:09.733Z,97913.03
2022-09-11T05:11:38.332Z,97906.50
2022-09-11T05:14:06.057Z,97913.78
2022-09-11T05:16:37.234Z,97912.88
2022-09-11T05:19:06.052Z,97919.88
2022-09-11T05:21:33.479Z,97924.16
2022-09-11T05:24:01.845Z,97922.44
2022-09-11T05:26:31.433Z,97927.75
2022-09-11T05:28:59.924Z,97930.69
2022-09-11T05:31:28.961Z,97939.75
2022-09-11T05:33:56.629Z,97943.28
2022-09-11T05:36:26.345Z,97942.06
2022-09-11T05:38:53.360Z,97939.84
2022-09-11T05:41:20.798Z,97934.94
2022-09-11T05:43:47.773Z,97937.78
2022-09-11T05:46:16.964Z,97941.59
2022-09-11T05:48:44.520Z,97938.59
2022-09-11T05:51:13.831Z,97938.50
2022-09-11T05:53:42.513Z,97941.09
2022-09-11T05:56:12.442Z,97946.44
2022-09-11T05:58:39.348Z,97948.56
2022-09-11T06:01:08.458Z,97952.78
2022-09-11T06:03:36.442Z,97957.91
2022-09-11T06:06:04.846Z,97961.31
2022-09-11T06:08:33.584Z,97960.22
2022-09-11T06:11:03.561Z,97968.25
2022-09-11T06:13:31.805Z,97975.50
2022-09-11T06:15:58.772Z,97974.28
2022-09-11T06:18:26.484Z,97982.66
2022-09-11T06:20:58.150Z,97986.59
2022-09-11T06:23:26.082Z,97975.06
2022-09-11T06:25:54.277Z,97978.69
2022-09-11T06:28:23.959Z,97973.25
2022-09-11T06:30:51.477Z,97970.22
2022-09-11T06:33:20.713Z,97973.13
2022-09-11T06:35:57.750Z,97972.81
2022-09-11T06:38:24.898Z,97979.59
2022-09-11T06:40:52.136Z,97966.47
2022-09-11T06:43:19.760Z,97979.78
2022-09-11T06:45:51.011Z,97983.59
2022-09-11T06:48:19.251Z,97982.06
2022-09-11T06:50:46.333Z,97987.09
2022-09-11T06:53:16.988Z,97986.66
2022-09-11T06:55:43.838Z,97985.22
2022-09-11T06:58:11.060Z,97989.66
2022-09-11T07:00:38.605Z,97980.75
2022-09-11T07:03:07.376Z,97990.25
2022-09-11T07:05:34.338Z,97990.25
2022-09-11T07:08:01.869Z,97989.59
2022-09-11T07:10:29.126Z,97995.66
2022-09-11T07:12:55.970Z,97996.91
2022-09-11T07:15:23.589Z,97995.28
2022-09-11T07:17:50.548Z,97993.75
2022-09-11T07:20:19.224Z,97998.13
2022-09-11T07:22:46.899Z,98001.41
2022-09-11T07:25:15.604Z,98005.47
2022-09-11T07:27:43.125Z,98010.56
2022-09-11T07:30:11.732Z,98011.81
2022-09-11T07:32:38.876Z,98012.13
2022-09-11T07:35:07.274Z,98012.47
2022-09-11T07:37:35.694Z,98021.81
2022-09-11T07:40:03.815Z,98026.16
2022-09-11T07:42:30.950Z,98023.44
2022-09-11T07:44:57.897Z,98021.91
2022-09-11T07:47:25.108Z,98030.44
2022-09-11T07:49:52.072Z,98025.50
2022-09-11T07:52:20.667Z,98032.38
2022-09-11T07:54:51.169Z,98023.66
2022-09-11T07:57:19.470Z,98032.91
2022-09-11T07:59:46.855Z,98032.47
2022-09-11T08:02:14.275Z,98032.47
2022-09-11T08:04:41.705Z,98037.34
2022-09-11T08:07:08.915Z,98036.84
2022-09-11T08:09:37.501Z,98042.41
2022-09-11T08:12:07.838Z,98042.09
2022-09-11T08:14:37.508Z,98046.34
2022-09-11T08:17:04.953Z,62402.38
2022-09-11T08:19:32.878Z,62402.38
2022-09-11T08:22:00.551Z,62402.38
2022-09-11T08:24:27.887Z,62402.38
2022-09-11T08:26:55.449Z,62402.38
2022-09-11T08:29:24.892Z,62402.38
2022-09-11T08:31:51.857Z,62402.38
2022-09-11T08:34:22.565Z,62402.38
2022-09-11T08:36:52.678Z,62402.38
2022-09-11T08:39:19.570Z,62402.38
2022-09-11T08:41:50.038Z,62402.38
2022-09-11T08:44:21.684Z,62402.38
2022-09-11T08:46:55.321Z,62402.38
2022-09-11T08:49:26.330Z,62402.38
2022-09-11T08:51:57.967Z,62402.38
2022-09-11T08:54:29.124Z,62402.38
2022-09-11T08:57:10.722Z,62402.38
2022-09-11T08:59:55.548Z,62402.38
2022-09-11T09:02:42.735Z,62402.38
2022-09-11T09:05:20.692Z,62402.38
2022-09-11T09:08:03.757Z,62402.38
2022-09-11T09:10:45.152Z,62402.38
2022-09-11T09:13:29.637Z,62402.38
2022-09-11T09:16:05.865Z,62402.38
2022-09-11T09:18:40.235Z,62402.38
2022-09-11T09:21:15.841Z,62402.38
2022-09-11T09:23:49.690Z,62402.38
2022-09-11T09:26:20.381Z,62402.38
2022-09-11T09:28:50.685Z,62402.38
2022-09-11T09:31:21.931Z,62402.38
2022-09-11T09:33:55.036Z,62402.38
2022-09-11T09:36:31.497Z,62402.38
2022-09-11T09:38:59.650Z,62402.38
2022-09-11T09:41:56.903Z,62402.38
2022-09-11T09:44:38.064Z,62402.38
2022-09-11T09:47:11.166Z,62402.38
2022-09-11T09:49:40.389Z,62402.38
2022-09-11T09:52:18.248Z,62402.38
2022-09-11T09:54:54.146Z,62402.38
2022-09-11T09:57:24.358Z,62402.38
2022-09-11T09:59:56.680Z,62402.38
2022-09-11T10:02:39.249Z,62402.38
2022-09-11T10:05:18.160Z,62402.38
2022-09-11T10:07:49.989Z,62402.38
2022-09-11T10:10:32.000Z,62402.38
2022-09-11T10:13:17.998Z,62402.38
2022-09-11T10:15:49.498Z,62402.38
2022-09-11T10:18:24.990Z,62402.38
2022-09-11T10:20:54.813Z,62402.38
2022-09-11T10:23:23.532Z,62402.38
2022-09-11T10:25:51.496Z,62402.38
2022-09-11T10:28:23.458Z,62402.38
2022-09-11T10:31:00.355Z,62402.38
2022-09-11T10:33:30.789Z,62402.38
2022-09-11T10:36:00.696Z,62402.38
2022-09-11T10:38:31.376Z,62402.38
2022-09-11T10:41:08.499Z,62402.38
2022-09-11T10:43:42.799Z,62402.38
2022-09-11T10:46:28.954Z,62402.38
2022-09-11T10:48:57.570Z,62402.38
2022-09-11T10:51:28.204Z,62402.38
2022-09-11T10:54:04.244Z,62402.38
2022-09-11T10:56:32.802Z,62402.38
2022-09-11T10:59:05.609Z,62402.38
2022-09-11T11:01:33.440Z,62402.38
2022-09-11T11:04:00.524Z,62402.38
2022-09-11T11:06:42.588Z,62402.38
2022-09-11T11:09:27.732Z,62402.38
2022-09-11T11:12:10.994Z,62402.38
2022-09-11T11:14:56.907Z,62402.38
2022-09-11T11:17:36.215Z,62402.38
2022-09-11T11:20:31.534Z,62402.38
2022-09-11T11:23:34.022Z,62402.38
2022-09-11T11:26:24.902Z,62402.38
2022-09-11T11:29:22.745Z,62402.38
2022-09-11T11:32:05.150Z,62402.38
2022-09-11T11:34:47.066Z,62402.38
2022-09-11T11:37:20.026Z,62402.38
2022-09-11T11:39:57.464Z,62402.38
2022-09-11T11:42:28.010Z,62402.38
2022-09-11T11:44:58.695Z,62402.38
2022-09-11T11:47:30.867Z,62402.38
2022-09-11T11:50:05.995Z,62402.38
2022-09-11T11:52:43.317Z,62402.38
2022-09-11T11:55:18.496Z,62402.38
2022-09-11T11:58:06.379Z,62402.38
2022-09-11T12:00:40.512Z,62402.38
2022-09-11T12:03:15.789Z,62402.38
2022-09-11T12:05:42.923Z,62402.38
2022-09-11T12:08:14.258Z,62402.38
2022-09-11T12:10:48.402Z,62402.38
2022-09-11T12:13:20.641Z,62402.38
2022-09-11T12:16:13.253Z,62402.38
2022-09-11T12:18:42.372Z,62402.38
2022-09-11T12:21:40.700Z,62402.38
2022-09-11T12:24:21.496Z,62402.38
2022-09-11T12:27:28.826Z,62402.38
2022-09-11T12:29:57.555Z,62402.38
2022-09-11T12:32:40.733Z,62402.38
2022-09-11T12:35:20.567Z,62402.38
2022-09-11T12:37:56.181Z,62402.38
2022-09-11T12:40:32.539Z,62402.38
2022-09-11T12:43:31.538Z,62402.38
2022-09-11T12:45:59.391Z,62402.38
2022-09-11T12:48:38.516Z,62402.38
2022-09-11T12:51:16.902Z,62402.38
2022-09-11T12:53:50.993Z,62402.38
2022-09-11T12:56:22.300Z,62402.38
2022-09-11T12:58:59.186Z,62402.38
2022-09-11T13:01:31.219Z,62402.38
2022-09-11T13:04:03.352Z,62402.38
2022-09-11T13:06:41.007Z,62402.38
2022-09-11T13:09:20.032Z,62402.38
2022-09-11T13:11:50.018Z,62402.38
2022-09-11T13:14:47.340Z,62402.38
2022-09-11T13:17:18.581Z,62402.38
2022-09-11T13:19:45.445Z,62402.38
2022-09-11T13:22:24.781Z,62402.38
2022-09-11T13:24:52.443Z,62402.38
2022-09-11T13:27:25.987Z,98046.34
2022-09-11T13:29:55.687Z,98067.34
2022-09-11T13:32:23.175Z,98061.69
2022-09-11T13:34:59.647Z,98064.91
2022-09-11T13:37:36.172Z,98062.63
2022-09-11T13:40:04.980Z,98058.63
2022-09-11T13:42:33.187Z,98063.97
2022-09-11T13:45:03.570Z,98061.88
2022-09-11T13:47:31.692Z,98052.84
2022-09-11T13:50:01.866Z,98061.63
2022-09-11T13:52:32.271Z,98058.75
2022-09-11T13:55:03.668Z,98055.84
2022-09-11T13:57:32.093Z,98060.69
2022-09-11T14:00:01.147Z,98060.44
2022-09-11T14:02:44.424Z,98059.44
2022-09-11T14:05:23.636Z,98057.09
2022-09-11T14:07:57.174Z,98057.75
2022-09-11T14:10:26.916Z,98055.72
2022-09-11T14:13:03.224Z,98055.72
2022-09-11T14:15:38.241Z,62402.38
2022-09-11T14:18:11.958Z,62402.38
2022-09-11T14:20:43.672Z,62402.38
2022-09-11T14:23:17.565Z,62402.38
2022-09-11T14:26:06.562Z,62402.38
2022-09-11T14:28:36.606Z,98031.69
2022-09-11T14:31:09.649Z,98032.28
2022-09-11T14:33:36.984Z,98033.09
2022-09-11T14:36:07.904Z,98025.69
2022-09-11T14:38:35.385Z,98038.94
2022-09-11T14:41:07.122Z,98030.53
2022-09-11T14:43:37.612Z,98033.50
2022-09-11T14:46:05.956Z,98032.72
2022-09-11T14:48:35.832Z,98027.97
2022-09-11T14:51:09.916Z,98027.66
2022-09-11T14:53:43.546Z,98027.66
2022-09-11T14:56:11.016Z,98024.19
2022-09-11T14:58:38.682Z,98022.72
2022-09-11T15:01:06.092Z,62402.38
2022-09-11T15:03:33.172Z,98018.78
2022-09-11T15:06:03.825Z,62402.38
2022-09-11T15:08:33.091Z,62402.38
2022-09-11T15:11:01.560Z,62402.38
2022-09-11T15:13:28.713Z,62402.38
2022-09-11T15:15:56.961Z,62402.38
2022-09-11T15:18:24.451Z,62402.38
2022-09-11T15:23:37.904Z,62402.38
2022-09-11T15:26:08.839Z,62402.38
2022-09-11T15:28:36.892Z,62402.38
2022-09-11T15:31:04.470Z,62402.38
2022-09-11T15:33:33.325Z,62402.38
2022-09-11T15:36:02.391Z,62402.38
2022-09-11T15:38:29.851Z,62402.38
2022-09-11T15:40:58.444Z,62402.38
2022-09-11T15:43:26.627Z,62402.38
2022-09-11T15:45:54.219Z,62402.38
2022-09-11T15:48:21.536Z,62402.38
2022-09-11T15:50:59.955Z,62402.38
2022-09-11T15:53:28.325Z,62402.38
2022-09-11T15:56:04.585Z,62402.38
2022-09-11T15:58:32.815Z,62402.38
2022-09-11T16:01:00.275Z,62402.38
2022-09-11T16:03:27.218Z,97979.88
2022-09-11T16:05:54.308Z,62402.38
2022-09-11T16:08:23.099Z,62402.38
2022-09-11T16:10:50.625Z,62402.38
2022-09-11T16:13:19.691Z,62402.38
2022-09-11T16:15:48.648Z,62402.38
2022-09-11T16:18:19.428Z,62402.38
2022-09-11T16:20:55.882Z,62402.38
2022-09-11T16:23:23.012Z,62402.38
2022-09-11T16:25:50.857Z,62402.38
2022-09-11T16:28:19.400Z,62402.38
2022-09-11T16:30:50.651Z,62402.38
2022-09-11T16:33:19.268Z,62402.38
2022-09-11T16:35:57.572Z,62402.38
2022-09-11T16:38:24.937Z,62402.38
2022-09-11T16:41:00.769Z,62402.38
2022-09-11T16:43:30.170Z,62402.38
2022-09-11T16:45:57.763Z,62402.38
2022-09-11T16:48:25.797Z,62402.38
2022-09-11T16:50:53.505Z,62402.38
2022-09-11T16:53:21.179Z,62402.38
2022-09-11T16:55:48.826Z,62402.38
2022-09-11T16:58:16.486Z,62402.38
2022-09-11T17:00:46.512Z,62402.38
2022-09-11T17:03:14.618Z,62402.38
2022-09-11T17:05:48.293Z,62402.38
2022-09-11T17:08:15.493Z,62402.38
2022-09-11T17:10:44.356Z,62402.38
2022-09-11T17:13:12.468Z,62402.38
2022-09-11T17:15:40.639Z,97979.88
2022-09-11T17:18:12.733Z,97981.66
2022-09-11T17:20:40.066Z,97978.47
2022-09-11T17:23:07.428Z,97980.09
2022-09-11T17:25:38.661Z,97977.41
2022-09-11T17:28:06.415Z,97978.56
2022-09-11T17:30:37.171Z,97983.22
2022-09-11T17:33:04.353Z,97976.25
2022-09-11T17:35:34.263Z,97976.09
2022-09-11T17:38:04.979Z,97987.38
2022-09-11T17:40:33.005Z,97978.84
2022-09-11T17:43:02.627Z,97979.50
2022-09-11T17:45:31.763Z,97982.75
2022-09-11T17:48:02.485Z,97983.69
2022-09-11T17:50:30.821Z,97987.22
2022-09-11T17:53:00.038Z,97994.94
2022-09-11T17:55:28.985Z,98003.59
2022-09-11T17:57:57.671Z,98000.88
2022-09-11T18:00:25.887Z,97995.38
2022-09-11T18:02:54.133Z,97998.06
2022-09-11T18:05:23.753Z,98001.59
2022-09-11T18:07:51.624Z,97996.28
2022-09-11T18:10:20.872Z,98004.56
2022-09-11T18:12:48.864Z,98005.81
2022-09-11T18:15:16.665Z,98005.69
2022-09-11T18:17:48.327Z,98004.56
2022-09-11T18:20:17.906Z,62402.38
2022-09-11T18:22:45.605Z,62402.38
2022-09-11T18:25:13.414Z,62402.38
2022-09-11T18:27:43.351Z,62402.38
2022-09-11T18:30:12.925Z,62402.38
2022-09-11T18:32:40.513Z,62402.38
2022-09-11T18:35:10.150Z,62402.38
2022-09-11T18:37:37.707Z,62402.38
2022-09-11T18:40:06.482Z,62402.38
2022-09-11T18:42:34.449Z,62402.38
2022-09-11T18:45:03.429Z,62402.38
2022-09-11T18:47:30.941Z,62402.38
2022-09-11T18:49:59.707Z,62402.38
2022-09-11T18:52:29.671Z,62402.38
2022-09-11T18:55:00.067Z,62402.38
2022-09-11T18:57:29.038Z,62402.38
2022-09-11T18:59:57.201Z,62402.38
2022-09-11T19:02:26.763Z,62402.38
2022-09-11T19:04:54.763Z,62402.38
2022-09-11T19:07:22.845Z,62402.38
2022-09-11T19:09:50.687Z,62402.38
2022-09-11T19:12:18.191Z,62402.38
2022-09-11T19:14:45.539Z,62402.38
2022-09-11T19:17:13.601Z,62402.38
2022-09-11T19:19:42.823Z,62402.38
2022-09-11T19:22:10.581Z,62402.38
2022-09-11T19:24:38.540Z,62402.38
2022-09-11T19:27:05.768Z,62402.38
2022-09-11T19:29:32.714Z,62402.38
2022-09-11T19:32:01.065Z,62402.38
2022-09-11T19:34:28.309Z,62402.38
2022-09-11T19:36:58.082Z,62402.38
2022-09-11T19:39:27.571Z,62402.38
2022-09-11T19:41:56.068Z,62402.38
2022-09-11T19:44:25.386Z,62402.38
2022-09-11T19:46:56.488Z,62402.38
2022-09-11T19:49:25.768Z,62402.38
2022-09-11T19:51:54.953Z,62402.38
2022-09-11T19:54:24.796Z,62402.38
2022-09-11T19:56:52.724Z,62402.38
2022-09-11T19:59:20.171Z,62402.38
2022-09-11T20:01:47.424Z,62402.38
2022-09-11T20:04:19.003Z,62402.38
2022-09-11T20:12:02.558Z,62402.38
2022-09-11T20:14:30.345Z,62402.38
2022-09-11T20:16:57.883Z,62402.38
2022-09-11T20:19:26.306Z,62402.38
2022-09-11T20:21:53.502Z,62402.38
2022-09-11T20:24:22.743Z,62402.38
2022-09-11T20:26:54.441Z,62402.38
2022-09-11T20:29:25.858Z,62402.38
2022-09-11T20:31:56.199Z,62402.38
2022-09-11T20:34:28.198Z,62402.38
2022-09-11T20:36:58.320Z,62402.38
2022-09-11T20:39:26.815Z,98056.28
2022-09-11T20:41:54.470Z,98046.09
2022-09-11T20:44:25.193Z,98056.94
2022-09-11T20:46:52.014Z,98057.34
2022-09-11T20:49:18.886Z,98057.91
2022-09-11T20:51:45.918Z,98057.91
2022-09-11T20:54:12.968Z,98051.69
2022-09-11T20:56:39.822Z,98053.00
2022-09-11T20:59:07.524Z,98049.19
2022-09-11T21:01:36.134Z,98052.69
2022-09-11T21:04:04.575Z,98046.19
2022-09-11T21:06:34.082Z,98041.41
2022-09-11T21:09:03.949Z,98047.13
2022-09-11T21:11:31.168Z,98046.63
2022-09-11T21:13:59.045Z,98043.16
2022-09-11T21:16:26.950Z,98035.41
2022-09-11T21:18:57.971Z,98033.84
2022-09-11T21:21:26.080Z,98039.06
2022-09-11T21:23:55.062Z,98033.97
2022-09-11T21:26:22.163Z,98038.44
2022-09-11T21:28:49.938Z,98038.50
2022-09-11T21:31:17.499Z,98034.16
2022-09-11T21:33:45.113Z,98033.91
2022-09-11T21:36:14.506Z,98037.19
2022-09-11T21:38:41.634Z,98038.28
2022-09-11T21:41:11.220Z,98033.16
2022-09-11T21:43:40.075Z,62402.38
2022-09-11T21:46:08.536Z,98024.53
2022-09-11T21:48:37.151Z,98022.69
2022-09-11T21:51:10.300Z,98022.75
2022-09-11T21:53:40.039Z,98024.69
2022-09-11T21:56:15.897Z,98026.38
2022-09-11T21:58:43.271Z,98020.97
2022-09-11T22:01:10.288Z,98026.44
2022-09-11T22:03:37.348Z,98028.66
2022-09-11T22:06:06.578Z,98026.31
2022-09-11T22:08:33.599Z,98024.19
2022-09-11T22:11:03.725Z,98032.84
2022-09-11T22:13:31.493Z,98023.09
2022-09-11T22:15:59.669Z,98021.75
2022-09-11T22:18:26.459Z,98016.91
2022-09-11T22:20:53.347Z,98017.50
2022-09-11T22:23:23.513Z,98014.03
2022-09-11T22:25:58.823Z,98011.06
2022-09-11T22:28:27.165Z,98003.81
2022-09-11T22:30:54.595Z,98006.81
2022-09-11T22:33:22.049Z,98008.97
2022-09-11T22:35:49.597Z,98010.06
2022-09-11T22:38:16.646Z,98006.66
2022-09-11T22:40:43.643Z,98005.59
2022-09-11T22:43:10.583Z,98008.75
2022-09-11T22:45:39.079Z,98004.44
2022-09-11T22:48:05.922Z,98010.50
2022-09-11T22:50:33.603Z,98009.59
2022-09-11T22:53:00.463Z,98012.28
2022-09-11T22:55:27.704Z,98015.06
2022-09-11T22:57:55.180Z,98016.44
2022-09-11T23:00:22.336Z,98026.03
2022-09-11T23:02:50.559Z,98017.91
2022-09-11T23:05:36.229Z,98022.56
2022-09-11T23:08:03.539Z,98019.34
2022-09-11T23:10:30.549Z,98011.75
2022-09-11T23:12:57.381Z,98016.91
2022-09-11T23:15:24.314Z,98009.66
2022-09-11T23:17:52.569Z,98010.50
2022-09-11T23:20:19.467Z,98001.06
2022-09-11T23:22:46.319Z,97999.72
2022-09-11T23:25:13.876Z,97991.91
2022-09-11T23:27:40.770Z,97994.06
2022-09-11T23:30:08.680Z,97996.53
2022-09-11T23:32:38.742Z,97996.00
2022-09-11T23:35:10.604Z,97993.59
2022-09-11T23:37:38.673Z,97984.19
2022-09-11T23:40:08.203Z,97988.50
2022-09-11T23:42:35.047Z,97993.34
2022-09-11T23:45:01.834Z,97987.97
2022-09-11T23:47:28.675Z,97978.78
2022-09-11T23:49:55.511Z,97983.16
2022-09-11T23:52:23.954Z,97977.50
2022-09-11T23:54:51.021Z,97981.53
2022-09-11T23:57:17.977Z,97988.06
2022-09-11T23:59:44.898Z,97984.00
